Terminal Aerodrome Forecast
Issued by NWS Wilmington, NC

Home | Current Version | Previous Version | Text Only | Print | Product List | Glossary On
Versions: 1 2 3 4 5 6 7 8 9 10 11 12 13 14 15 16 17 18
909
FTUS42 KILM 252347
TAFLBT
TAF
KLBT 252347Z 2600/2624 07002KT P6SM BKN250
     FM261200 07005KT P6SM BKN100
     FM261500 08006KT P6SM FEW250=

USA.gov is the U.S. government's official web portal to all federal, state and local government web resources and services.